createdAt,value
2019-01-14T00:05:04.843Z,2.9
2019-01-14T00:10:30.866Z,2.9
2019-01-14T00:15:58.194Z,2.9
2019-01-14T00:21:25.498Z,2.8
2019-01-14T00:26:52.800Z,2.8
2019-01-14T00:32:20.783Z,2.8
2019-01-14T00:37:45.382Z,2.8
2019-01-14T00:43:12.910Z,2.8
2019-01-14T00:48:39.974Z,2.8
2019-01-14T00:54:12.647Z,2.9
2019-01-14T00:59:33.637Z,2.9
2019-01-14T01:05:07.757Z,2.9
2019-01-14T01:10:27.505Z,3
2019-01-14T01:15:53.647Z,3.1
2019-01-14T01:21:20.891Z,3.1
2019-01-14T01:26:47.186Z,3.1
2019-01-14T01:32:14.919Z,3.1
2019-01-14T01:37:40.932Z,3.1
2019-01-14T01:43:08.177Z,3
2019-01-14T01:48:34.487Z,3
2019-01-14T01:54:01.825Z,3
2019-01-14T01:59:28.146Z,3
2019-01-14T02:04:55.480Z,3.1
2019-01-14T02:10:21.776Z,2.9
2019-01-14T02:15:48.065Z,2.3
2019-01-14T02:21:24.749Z,1.8
2019-01-14T02:26:41.528Z,1.6
2019-01-14T02:32:07.683Z,1.5
2019-01-14T02:37:33.882Z,1.5
2019-01-14T02:43:01.069Z,1.5
2019-01-14T02:48:27.303Z,1.5
2019-01-14T02:53:54.568Z,1.5
2019-01-14T02:59:21.715Z,1.5
2019-01-14T03:04:47.952Z,1.5
2019-01-14T03:10:15.286Z,1.5
2019-01-14T03:15:41.319Z,1.5
2019-01-14T03:21:07.506Z,1.5
2019-01-14T03:26:34.674Z,1.5
2019-01-14T03:32:00.918Z,1.5
2019-01-14T03:37:27.087Z,1.6
2019-01-14T03:42:54.351Z,1.6
2019-01-14T03:48:21.518Z,1.7
2019-01-14T03:53:47.716Z,1.7
2019-01-14T03:59:13.970Z,1.7
2019-01-14T04:04:40.441Z,1.7
2019-01-14T04:10:06.349Z,1.8
2019-01-14T04:15:33.562Z,1.8
2019-01-14T04:20:59.817Z,1.7
2019-01-14T04:26:25.968Z,1.7
2019-01-14T04:31:52.217Z,1.7
2019-01-14T04:37:21.572Z,1.6
2019-01-14T04:42:46.646Z,1.6
2019-01-14T04:48:12.841Z,1.6
2019-01-14T04:53:40.060Z,1.6
2019-01-14T04:59:07.237Z,1.6
2019-01-14T05:04:33.456Z,1.6
2019-01-14T05:10:00.679Z,1.5
2019-01-14T05:15:27.829Z,1.4
2019-01-14T05:20:53.987Z,1.3
2019-01-14T05:26:21.181Z,1.2
2019-01-14T05:31:47.377Z,1.1
2019-01-14T05:37:13.492Z,1
2019-01-14T05:42:40.673Z,0.9
2019-01-14T05:48:07.772Z,0.9
2019-01-14T05:53:33.950Z,0.8
2019-01-14T05:59:01.083Z,0.8
2019-01-14T06:04:28.231Z,0.8
2019-01-14T06:09:54.398Z,0.8
2019-01-14T06:15:21.569Z,0.8
2019-01-14T06:20:47.742Z,0.7
2019-01-14T06:26:14.781Z,0.7
2019-01-14T06:31:41.935Z,0.8
2019-01-14T06:37:08.061Z,0.8
2019-01-14T06:42:35.205Z,0.8
2019-01-14T06:48:01.475Z,0.9
2019-01-14T06:53:27.500Z,0.9
2019-01-14T06:58:54.619Z,0.8
2019-01-14T07:04:21.791Z,0.7
2019-01-14T07:09:48.931Z,0.7
2019-01-14T07:15:16.051Z,0.7
2019-01-14T07:20:43.247Z,0.7
2019-01-14T07:26:10.498Z,0.7
2019-01-14T07:31:36.474Z,0.6
2019-01-14T07:37:03.611Z,0.6
2019-01-14T07:42:30.700Z,0.6
2019-01-14T07:47:56.870Z,0.6
2019-01-14T07:53:23.031Z,0.6
2019-01-14T07:58:49.254Z,0.7
2019-01-14T08:04:16.323Z,0.7
2019-01-14T08:09:42.406Z,0.6
2019-01-14T08:15:09.514Z,0.6
2019-01-14T08:20:35.624Z,0.6
2019-01-14T08:26:01.784Z,0.6
2019-01-14T08:31:27.879Z,0.6
2019-01-14T08:37:00.559Z,0.7
2019-01-14T08:42:21.284Z,0.8
2019-01-14T08:47:52.309Z,0.9
2019-01-14T08:53:14.437Z,0.9
2019-01-14T08:58:40.741Z,0.9
2019-01-14T09:04:07.724Z,0.8
2019-01-14T09:09:34.846Z,0.7
2019-01-14T09:15:01.047Z,0.5
2019-01-14T09:20:27.188Z,0.5
2019-01-14T09:25:53.833Z,0.5
2019-01-14T09:31:19.334Z,0.5
2019-01-14T09:36:46.476Z,0.6
2019-01-14T09:42:12.743Z,0.7
2019-01-14T09:47:39.758Z,0.8
2019-01-14T09:53:05.782Z,0.9
2019-01-14T10:03:58.069Z,0.9
2019-01-14T10:09:24.289Z,0.9
2019-01-14T10:14:51.367Z,0.9
2019-01-14T10:20:18.468Z,0.9
2019-01-14T10:25:44.572Z,1
2019-01-14T10:31:11.734Z,1.1
2019-01-14T10:36:37.877Z,1.1
2019-01-14T10:42:05.247Z,1.1
2019-01-14T10:47:31.280Z,1.1
2019-01-14T10:52:58.399Z,1
2019-01-14T10:58:25.522Z,1
2019-01-14T11:03:52.661Z,1.1
2019-01-14T11:09:19.794Z,1.1
2019-01-14T11:14:45.937Z,1.3
2019-01-14T11:20:12.149Z,1.2
2019-01-14T11:25:40.747Z,0.9
2019-01-14T11:31:05.325Z,0.6
2019-01-14T11:36:32.432Z,0.5
2019-01-14T11:41:59.562Z,0.5
2019-01-14T11:47:25.611Z,0.6
2019-01-14T11:52:52.745Z,0.7
2019-01-14T11:58:18.891Z,0.9
2019-01-14T12:03:45.031Z,1.1
2019-01-14T12:09:12.633Z,1.2
2019-01-14T12:14:38.387Z,1.3
2019-01-14T12:20:04.498Z,1.4
2019-01-14T12:25:31.660Z,1.5
2019-01-14T12:30:58.910Z,1.5
2019-01-14T12:36:25.040Z,1.6
2019-01-14T12:41:52.211Z,1.7
2019-01-14T12:47:19.375Z,1.7
2019-01-14T12:52:46.546Z,1.7
2019-01-14T12:58:12.744Z,1.7
2019-01-14T13:03:39.954Z,1.7
2019-01-14T13:09:07.100Z,1.7
2019-01-14T13:14:33.322Z,1.7
2019-01-14T13:19:59.518Z,1.6
2019-01-14T13:25:25.677Z,1.5
2019-01-14T13:30:51.797Z,1.5
2019-01-14T13:36:17.952Z,1.5
2019-01-14T13:41:44.113Z,1.5
2019-01-14T13:47:10.543Z,1.5
2019-01-14T13:52:37.514Z,1.6
2019-01-14T13:58:03.653Z,1.6
2019-01-14T14:03:29.841Z,1.6
2019-01-14T14:08:56.055Z,1.6
2019-01-14T14:14:22.190Z,1.7
2019-01-14T14:19:48.382Z,1.7
2019-01-14T14:25:15.596Z,1.7
2019-01-14T14:30:41.698Z,1.7
2019-01-14T14:36:07.880Z,1.7
2019-01-14T14:41:34.216Z,1.7
2019-01-14T14:47:00.355Z,1.6
2019-01-14T14:52:26.811Z,1.6
2019-01-14T14:57:52.609Z,1.6
2019-01-14T15:03:19.763Z,1.6
2019-01-14T15:08:46.061Z,1.6
2019-01-14T15:14:12.127Z,1.5
2019-01-14T15:19:38.251Z,1.5
2019-01-14T15:25:05.675Z,1.5
2019-01-14T15:30:31.603Z,1.4
2019-01-14T15:35:57.806Z,1.4
2019-01-14T15:41:24.938Z,1.3
2019-01-14T15:46:52.071Z,1.2
2019-01-14T15:52:18.205Z,1.2
2019-01-14T15:57:45.574Z,1.1
2019-01-14T16:03:12.524Z,1.1
2019-01-14T16:08:39.678Z,1.1
2019-01-14T16:14:12.080Z,1.1
2019-01-14T16:19:33.905Z,1.1
2019-01-14T16:25:01.002Z,1.1
2019-01-14T16:30:28.141Z,1
2019-01-14T16:35:54.309Z,1
2019-01-14T16:41:20.426Z,1.1
2019-01-14T16:46:47.586Z,1.1
2019-01-14T16:52:13.741Z,1
2019-01-14T16:57:40.857Z,1
2019-01-14T17:03:07.004Z,1
2019-01-14T17:08:33.208Z,1
2019-01-14T17:14:00.371Z,0.9
2019-01-14T17:19:27.403Z,1
2019-01-14T17:24:54.495Z,1
2019-01-14T17:30:21.624Z,1.1
2019-01-14T17:35:48.760Z,1.1
2019-01-14T17:41:14.917Z,1
2019-01-14T17:46:41.068Z,1.1
2019-01-14T17:52:08.143Z,1.1
2019-01-14T17:57:35.304Z,1.2
2019-01-14T18:03:02.513Z,1.3
2019-01-14T18:08:28.576Z,1.4
2019-01-14T18:13:55.725Z,1.4
2019-01-14T18:19:22.905Z,1.4
2019-01-14T18:24:49.000Z,1.3
2019-01-14T18:30:16.176Z,1.3
2019-01-14T18:35:43.330Z,1.2
2019-01-14T18:41:10.556Z,1.2
2019-01-14T18:46:36.691Z,1.2
2019-01-14T18:52:02.820Z,1.3
2019-01-14T18:57:29.891Z,1.3
2019-01-14T19:02:57.026Z,1.3
2019-01-14T19:08:24.172Z,1.3
2019-01-14T19:13:50.722Z,1.3
2019-01-14T19:19:17.461Z,1.4
2019-01-14T19:24:44.557Z,1.4
2019-01-14T19:30:11.735Z,1.4
2019-01-14T19:35:37.879Z,1.4
2019-01-14T19:41:10.139Z,1.4
2019-01-14T19:46:31.229Z,1.4
2019-01-14T19:51:57.343Z,1.4
2019-01-14T19:57:23.539Z,1.4
2019-01-14T20:02:49.670Z,1.4
2019-01-14T20:08:15.836Z,1.5
2019-01-14T20:13:43.020Z,1.5
2019-01-14T20:19:09.138Z,1.5
2019-01-14T20:24:36.389Z,1.6
2019-01-14T20:30:02.605Z,1.7
2019-01-14T20:35:29.607Z,1.7
2019-01-14T20:40:55.814Z,1.8
2019-01-14T20:46:22.000Z,1.8
2019-01-14T20:51:49.111Z,1.8
2019-01-14T20:57:16.404Z,1.7
2019-01-14T21:02:43.456Z,1.8
2019-01-14T21:08:09.596Z,1.8
2019-01-14T21:13:35.867Z,1.8
2019-01-14T21:19:02.952Z,1.8
2019-01-14T21:24:30.377Z,1.8
2019-01-14T21:29:57.302Z,1.8
2019-01-14T21:35:24.460Z,1.8
2019-01-14T21:40:51.637Z,1.8
2019-01-14T21:46:18.915Z,1.8
2019-01-14T21:51:46.017Z,1.8
2019-01-14T21:57:12.216Z,1.8
2019-01-14T22:02:39.328Z,1.8
2019-01-14T22:08:05.479Z,1.8
2019-01-14T22:13:31.688Z,1.8
2019-01-14T22:18:57.848Z,1.8
2019-01-14T22:24:24.048Z,1.9
2019-01-14T22:29:50.316Z,1.9
2019-01-14T22:35:16.541Z,2
2019-01-14T22:40:42.571Z,2.1
2019-01-14T22:46:09.806Z,2.2
2019-01-14T22:51:35.980Z,2.3
2019-01-14T22:57:02.203Z,2.3
2019-01-14T23:02:28.413Z,2.3
2019-01-14T23:07:54.610Z,2.3
2019-01-14T23:13:21.835Z,2.3
2019-01-14T23:18:49.047Z,2.3
2019-01-14T23:24:15.520Z,2.3
2019-01-14T23:29:41.434Z,2.3
2019-01-14T23:35:07.675Z,2.3
2019-01-14T23:46:02.132Z,2.2
2019-01-14T23:51:29.250Z,2.2
2019-01-14T23:56:55.409Z,2.2
